Aérodrome :
LOGIN :

S'inscrire | Disclaimer

   EN    FR    IT 

 










Légende :    VFR   VFR Marginal   IFR   IFR Intensif   IFR Très Intensif
Visi : 
Plafond : 
>= 8 km
>= 3000ft
5 à 8 km
1000 à 3000 ft
1500m à 5 km
500 à 1000 ft
800 à 1500m
200 à 500 ft
< 800m
< 200 ft
Symboles :   Orages  Brouillard  Fortes neiges  Fortes précipitations  Vent > 20 kt
SIGMETs :   Divers  Orages  Givrage  Turbulence  Onde Orograph.  Cendres Volcan.






- Altitude de l'aérodrome : 935 ft


EBFS - Florennes

DERNIER METAR :
  • 232206Z AUTO 20011KT 4700 -RA FEW007/// SCT021/// BKN042/// 15/14 Q1001 GRN

METARs EXPIRÉS :
  • 232150Z AUTO 21011KT 6000 RA FEW008/// SCT035/// BKN050/// 15/14 Q1001 WHT
  • 232125Z AUTO 23014KT 9999 -RA FEW012/// SCT027/// BKN031/// 15/14 Q1002 BLU
  • 232103Z AUTO 24010KT 6000 +RA FEW011/// SCT033/// BKN042/// 15/14 Q1002 WHT
  • 232038Z AUTO 20012KT 4200 +RA FEW011/// SCT037/// BKN055/// 15/14 Q1002 GRN
  • 232025Z AUTO 24014KT 6000 +RA FEW011/// SCT036/// BKN046/// 15/13 Q1002 WHT
  • 231955Z AUTO 17006KT 9999 FEW045/// BKN065/// OVC085/// 17/12 Q1001 BLU
  • 231925Z AUTO 16005KT 9999 FEW050/// BKN070/// BKN100/// 17/13 Q1002 BLU

Prévision TAF périmée.



MET'MAP, la Météo Aéronautique d'un coup d'oeil ! - Copyright ORBIFLY Décembre 2007 - Disclaimer

ORBIFLY MET'MAP TEAM :

Programmation & Développement : Alexandra Zaïnal
Sur une idée originale de : Baudouin d'Aumeries
Assistance à la programmation : Marc-Olivier Méhu
Soutien technique & logistique : Manuel Goepfert

Contact : metmap@orbifly.com




SOURCES & CREDITS :

   NOAA